Time;durP1;ratioP1;P1;durP2;ratioP2;P2;SDS_P1;SDS_P2;PMS_P1;PMS_P2;Temp;Humidity;BMP_temperature;BMP_pressure;BME280_temperature;BME280_humidity;BME280_pressure;Samples;Min_cycle;Max_cycle;Signal;HPM_P1;HPM_P2
2021/05/20 00:00:20;;;;;;;1.98;0.60;;;;;;;13.26;87.07;99332.14;1711832;83;20983;-43
2021/05/20 00:02:46;;;;;;;1.05;0.42;;;;;;;13.25;87.15;99329.09;1744178;81;21022;-44
2021/05/20 00:05:16;;;;;;;0.62;0.40;;;;;;;13.23;87.15;99327.91;1706362;83;20974;-46
2021/05/20 00:07:43;;;;;;;1.57;0.30;;;;;;;13.23;87.21;99329.24;1729492;82;21033;-47
2021/05/20 00:10:10;;;;;;;1.05;0.65;;;;;;;13.23;87.22;99326.56;1705536;82;21003;-46
2021/05/20 00:12:37;;;;;;;0.50;0.50;;;;;;;13.26;87.21;99328.13;1713032;82;21093;-41
2021/05/20 00:15:06;;;;;;;0.45;0.45;;;;;;;13.26;87.15;99328.97;1708633;82;21977;-41
2021/05/20 00:17:32;;;;;;;0.40;0.33;;;;;;;13.25;87.15;99329.09;1709476;83;21029;-44
2021/05/20 00:19:59;;;;;;;0.72;0.40;;;;;;;13.23;87.15;99332.38;1703087;83;21316;-41
2021/05/20 00:22:25;;;;;;;0.88;0.40;;;;;;;13.23;87.16;99330.58;1713890;82;21062;-43
2021/05/20 00:24:52;;;;;;;0.30;0.30;;;;;;;13.19;87.06;99329.98;1712653;82;21026;-43
2021/05/20 00:27:19;;;;;;;0.88;0.55;;;;;;;13.14;87.11;99325.52;1764409;80;21025;-43
2021/05/20 00:29:46;;;;;;;0.88;0.40;;;;;;;13.11;87.15;99322.28;1766555;79;20998;-40
2021/05/20 00:32:12;;;;;;;0.88;0.82;;;;;;;13.12;87.22;99331.99;1765265;80;21624;-45
2021/05/20 00:34:39;;;;;;;0.40;0.40;;;;;;;13.10;87.25;99325.92;1701995;82;21018;-42
2021/05/20 00:37:05;;;;;;;0.30;0.30;;;;;;;13.06;87.27;99325.84;1766495;80;21002;-42
2021/05/20 00:39:32;;;;;;;1.98;0.40;;;;;;;13.06;87.37;99332.05;1765953;80;21010;-43
2021/05/20 00:42:10;;;;;;;0.30;0.30;;;;;;;13.09;87.46;99332.27;1694754;83;20990;-44
2021/05/20 00:44:56;;;;;;;0.98;0.57;;;;;;;13.09;87.46;99328.25;1764378;79;21118;-43
2021/05/20 00:47:27;;;;;;;0.50;0.40;;;;;;;13.08;87.46;99331.89;1671356;83;21054;-47
2021/05/20 00:49:53;;;;;;;;;;;;;;;13.04;87.42;99334.00;1671144;83;21499;-44
2021/05/20 00:52:20;;;;;;;1.65;0.85;;;;;;;13.00;87.48;99329.87;1668761;83;20180;-43
2021/05/20 00:54:54;;;;;;;0.50;0.50;;;;;;;12.98;87.50;99330.53;1676205;83;21006;-40
2021/05/20 00:57:21;;;;;;;0.40;0.35;;;;;;;12.95;87.55;99330.77;1673534;83;21073;-48
2021/05/20 00:59:49;;;;;;;2.67;0.60;;;;;;;12.93;87.58;99331.42;1674218;84;21822;-44
2021/05/20 01:02:17;;;;;;;1.60;0.40;;;;;;;12.90;87.57;99327.64;1675399;84;21014;-47
2021/05/20 01:04:43;;;;;;;0.72;0.35;;;;;;;12.90;87.64;99323.63;1672129;83;21048;-45
2021/05/20 01:07:10;;;;;;;1.27;0.40;;;;;;;12.91;87.70;99330.70;1676629;83;21088;-45
2021/05/20 01:09:37;;;;;;;1.40;0.37;;;;;;;12.90;87.77;99323.63;1677445;83;21027;-46
2021/05/20 01:12:08;;;;;;;1.37;0.55;;;;;;;12.88;87.73;99334.48;1667941;83;21069;-40
2021/05/20 01:14:43;;;;;;;1.42;0.28;;;;;;;12.84;87.76;99336.21;1676132;83;21020;-45
2021/05/20 01:17:10;;;;;;;0.98;0.50;;;;;;;12.77;87.63;99328.72;1673332;83;21065;-44
2021/05/20 01:19:47;;;;;;;0.68;0.50;;;;;;;12.73;87.72;99329.11;1675378;84;21042;-45
2021/05/20 01:22:14;;;;;;;1.65;0.40;;;;;;;12.68;88.05;99324.16;1678531;80;21087;-44
2021/05/20 01:24:41;;;;;;;0.40;0.40;;;;;;;12.64;88.02;99321.86;1771811;80;21033;-51
2021/05/20 01:27:08;;;;;;;1.10;0.60;;;;;;;12.60;88.11;99325.77;1776381;79;21493;-41
2021/05/20 01:29:35;;;;;;;0.53;0.50;;;;;;;12.59;88.10;99322.25;1775526;79;20994;-41
2021/05/20 01:32:03;;;;;;;0.75;0.50;;;;;;;12.59;88.13;99324.92;1774958;80;21036;-42
2021/05/20 01:34:33;;;;;;;1.32;0.70;;;;;;;12.58;88.24;99325.91;1758892;79;21001;-44
2021/05/20 01:37:02;;;;;;;1.98;0.75;;;;;;;12.62;88.28;99330.00;1772383;79;21029;-47
2021/05/20 01:39:28;;;;;;;1.07;0.55;;;;;;;12.62;88.29;99327.33;1775808;79;21009;-46
2021/05/20 01:41:55;;;;;;;0.68;0.62;;;;;;;12.64;88.36;99320.03;1780138;79;21482;-42
2021/05/20 01:44:22;;;;;;;0.57;0.50;;;;;;;12.67;88.30;99326.45;1774312;79;21067;-44
2021/05/20 01:46:49;;;;;;;2.00;0.75;;;;;;;12.67;88.27;99323.77;1777786;79;21484;-41
2021/05/20 01:49:16;;;;;;;0.80;0.70;;;;;;;12.69;88.23;99324.50;1771008;80;20957;-43
2021/05/20 01:51:43;;;;;;;0.85;0.70;;;;;;;12.68;88.16;99329.50;1706157;83;20996;-50
2021/05/20 01:54:09;;;;;;;1.80;1.05;;;;;;;12.69;88.13;99324.50;1728077;82;21646;-43
2021/05/20 01:56:36;;;;;;;1.27;0.70;;;;;;;12.73;88.07;99325.10;1724515;82;21080;-48
2021/05/20 01:59:06;;;;;;;0.50;0.50;;;;;;;12.74;88.00;99319.60;1726801;82;21038;-43
2021/05/20 02:01:34;;;;;;;2.02;0.60;;;;;;;12.75;87.97;99328.00;1706955;82;21021;-41
2021/05/20 02:04:00;;;;;;;1.15;0.80;;;;;;;12.76;87.83;99322.16;1725072;82;21057;-46
2021/05/20 02:06:28;;;;;;;1.00;0.90;;;;;;;12.76;87.70;99324.83;1727359;82;20997;-42
2021/05/20 02:08:54;;;;;;;1.62;0.80;;;;;;;12.74;87.62;99320.94;1723483;81;21044;-41
2021/05/20 02:11:20;;;;;;;2.15;1.25;;;;;;;12.72;87.48;99328.73;1704682;82;21013;-43
2021/05/20 02:13:48;;;;;;;1.17;0.72;;;;;;;12.69;87.43;99325.00;1727743;82;21029;-45
2021/05/20 02:16:14;;;;;;;1.62;1.00;;;;;;;12.68;87.27;99325.48;1709622;83;21012;-46
2021/05/20 02:18:41;;;;;;;1.85;1.00;;;;;;;12.67;87.28;99321.59;1712030;82;20994;-45
2021/05/20 02:21:07;;;;;;;2.12;0.88;;;;;;;12.65;87.09;99327.56;1710560;82;21013;-41
2021/05/20 02:23:34;;;;;;;1.75;1.17;;;;;;;12.61;87.07;99322.97;1722790;82;21497;-45
2021/05/20 02:26:01;;;;;;;2.77;0.90;;;;;;;12.60;87.07;99325.30;1703445;83;21161;-42
2021/05/20 02:28:27;;;;;;;1.30;1.02;;;;;;;12.59;86.99;99328.94;1697324;82;21535;-42
2021/05/20 02:30:54;;;;;;;1.85;0.80;;;;;;;12.57;87.08;99328.21;1747052;80;21730;-46
2021/05/20 02:33:20;;;;;;;1.37;0.90;;;;;;;12.58;87.12;99324.58;1747242;80;21006;-46
2021/05/20 02:35:47;;;;;;;3.52;1.25;;;;;;;12.59;87.01;99328.09;1707042;82;20989;-47
2021/05/20 02:38:14;;;;;;;1.95;1.10;;;;;;;12.56;86.92;99323.85;1729391;80;21049;-47
2021/05/20 02:40:40;;;;;;;1.45;0.90;;;;;;;12.53;86.86;99320.11;1746271;80;21002;-48
2021/05/20 02:43:07;;;;;;;1.22;1.10;;;;;;;12.55;86.94;99324.84;1704816;82;21036;-45
2021/05/20 02:45:34;;;;;;;3.10;0.85;;;;;;;12.59;86.92;99324.08;1746038;80;21009;-48
2021/05/20 02:48:00;;;;;;;1.80;1.10;;;;;;;12.59;86.77;99323.59;1728589;81;21937;-43
2021/05/20 02:50:27;;;;;;;3.12;1.17;;;;;;;12.58;86.66;99322.40;1746904;80;21016;-45
2021/05/20 02:52:54;;;;;;;2.30;1.40;;;;;;;12.56;86.44;99317.17;1745268;80;20970;-44
2021/05/20 02:55:22;;;;;;;2.58;1.40;;;;;;;12.53;86.36;99309.42;1747318;80;20974;-45
2021/05/20 02:57:56;;;;;;;2.35;0.98;;;;;;;12.52;86.29;99317.06;1743101;80;21013;-42
2021/05/20 03:00:26;;;;;;;1.10;1.00;;;;;;;12.51;86.20;99322.06;1746361;80;20986;-40
2021/05/20 03:02:50;;;;;;;1.92;1.10;;;;;;;12.49;86.20;99318.66;1744971;80;21005;-47
2021/05/20 03:05:18;;;;;;;4.47;1.32;;;;;;;12.49;86.08;99313.31;1744027;80;21762;-44
2021/05/20 03:07:44;;;;;;;5.28;1.35;;;;;;;12.47;86.05;99316.14;1745231;80;21002;-45
2021/05/20 03:10:12;;;;;;;2.12;1.00;;;;;;;12.48;86.11;99323.66;1744177;80;21029;-46
2021/05/20 03:12:39;;;;;;;3.92;1.00;;;;;;;12.47;86.07;99320.15;1742684;80;21450;-45
2021/05/20 03:15:07;;;;;;;1.75;1.10;;;;;;;12.48;85.98;99316.48;1745756;80;20969;-45
2021/05/20 03:17:33;;;;;;;1.57;1.00;;;;;;;12.49;85.83;99320.84;1747328;80;21023;-45
2021/05/20 03:20:01;;;;;;;3.15;0.90;;;;;;;12.48;85.65;99324.51;1745386;80;21540;-47
2021/05/20 03:22:27;;;;;;;1.95;0.95;;;;;;;12.51;85.47;99322.91;1747243;80;21084;-42
2021/05/20 03:24:54;;;;;;;1.75;1.22;;;;;;;12.51;85.31;99315.37;1755306;79;20998;-43
2021/05/20 03:27:21;;;;;;;1.60;0.80;;;;;;;12.48;85.22;99323.66;1760714;80;20998;-43
2021/05/20 03:29:48;;;;;;;3.33;1.20;;;;;;;12.43;85.25;99323.20;1767775;79;21552;-42
2021/05/20 03:32:15;;;;;;;1.82;0.95;;;;;;;12.40;85.25;99321.64;1703365;82;21092;-46
2021/05/20 03:34:41;;;;;;;5.22;1.00;;;;;;;12.39;85.49;99325.27;1763842;79;21006;-52
2021/05/20 03:37:08;;;;;;;1.32;0.80;;;;;;;12.39;85.51;99321.75;1767930;80;21014;-42
2021/05/20 03:39:35;;;;;;;1.35;0.95;;;;;;;12.41;85.65;99327.83;1766273;80;20994;-43
2021/05/20 03:42:02;;;;;;;1.25;1.02;;;;;;;12.42;85.45;99329.51;1768955;80;21481;-42
2021/05/20 03:44:30;;;;;;;2.17;0.85;;;;;;;12.41;85.17;99326.48;1728365;80;21616;-39
2021/05/20 03:46:57;;;;;;;2.35;1.02;;;;;;;12.41;85.03;99330.00;1766629;80;21532;-43
2021/05/20 03:49:24;;;;;;;1.67;1.00;;;;;;;12.43;84.99;99332.56;1767850;80;21001;-41
2021/05/20 03:51:51;;;;;;;2.85;1.27;;;;;;;12.45;85.03;99335.47;1769753;80;20999;-43
2021/05/20 03:54:18;;;;;;;1.55;0.90;;;;;;;12.46;84.66;99339.83;1702492;83;21038;-43
2021/05/20 03:56:45;;;;;;;2.05;0.82;;;;;;;12.46;84.49;99338.98;1768474;79;21473;-41
2021/05/20 03:59:12;;;;;;;1.40;0.95;;;;;;;12.45;84.49;99342.15;1695837;83;21006;-40
2021/05/20 04:01:40;;;;;;;2.35;0.95;;;;;;;12.47;84.53;99342.00;1773162;79;21080;-41
2021/05/20 04:04:08;;;;;;;4.67;0.90;;;;;;;12.50;84.48;99343.11;1695905;83;21006;-43
2021/05/20 04:06:35;;;;;;;2.08;0.72;;;;;;;12.49;84.16;99338.22;1771027;80;21013;-46
2021/05/20 04:09:03;;;;;;;1.25;0.70;;;;;;;12.52;83.96;99347.34;1768550;80;21030;-39
2021/05/20 04:11:30;;;;;;;1.42;0.90;;;;;;;12.53;83.96;99341.50;1767787;79;21814;-43
2021/05/20 04:13:58;;;;;;;8.28;1.50;;;;;;;12.55;83.72;99348.42;1770661;80;21001;-41
2021/05/20 04:16:25;;;;;;;2.77;0.80;;;;;;;12.54;83.63;99346.70;1766150;80;21019;-42
2021/05/20 04:18:53;;;;;;;2.75;0.88;;;;;;;12.60;83.61;99349.83;1774181;80;20982;-44
2021/05/20 04:21:21;;;;;;;2.47;1.07;;;;;;;12.66;83.51;99357.36;1766194;79;21016;-46
2021/05/20 04:23:48;;;;;;;2.25;0.80;;;;;;;12.70;83.29;99355.63;1769710;80;20958;-42
2021/05/20 04:26:19;;;;;;;1.35;0.65;;;;;;;12.72;83.10;99360.34;1765922;79;21064;-44
2021/05/20 04:28:47;;;;;;;1.47;0.90;;;;;;;12.73;83.01;99344.66;1744983;80;21529;-45
2021/05/20 04:31:14;;;;;;;0.80;0.72;;;;;;;12.74;82.94;99351.70;1710646;82;21016;-42
2021/05/20 04:33:43;;;;;;;3.10;0.98;;;;;;;12.76;82.68;99355.59;1747380;80;20982;-42
2021/05/20 04:36:09;;;;;;;1.65;0.75;;;;;;;12.74;82.41;99355.71;1747144;80;21005;-45
2021/05/20 04:38:36;;;;;;;2.70;1.07;;;;;;;12.75;82.46;99353.87;1752942;80;20998;-49
2021/05/20 04:41:03;;;;;;;3.08;1.12;;;;;;;12.79;82.40;99360.67;1745900;82;21017;-45
2021/05/20 04:43:29;;;;;;;1.65;0.85;;;;;;;12.81;82.32;99358.72;1749913;80;21081;-41
2021/05/20 04:45:56;;;;;;;1.07;0.80;;;;;;;12.80;82.13;99358.38;1750947;81;21010;-43
2021/05/20 04:48:22;;;;;;;1.40;0.82;;;;;;;12.79;82.06;99363.35;1755664;80;21325;-43
2021/05/20 04:50:49;;;;;;;2.98;1.52;;;;;;;12.81;81.91;99364.08;1749975;80;21001;-43
2021/05/20 04:53:16;;;;;;;5.95;1.10;;;;;;;12.81;81.53;99365.91;1750330;80;21006;-43
2021/05/20 04:55:42;;;;;;;4.08;1.15;;;;;;;12.77;81.33;99368.85;1749481;80;21584;-42
2021/05/20 04:58:09;;;;;;;1.72;0.93;;;;;;;12.75;81.23;99369.46;1750412;80;20974;-42
2021/05/20 05:00:35;;;;;;;3.33;1.00;;;;;;;12.74;81.33;99374.44;1749590;80;21029;-44
2021/05/20 05:03:02;;;;;;;1.35;0.75;;;;;;;12.71;81.27;99365.84;1754315;80;21022;-43
2021/05/20 05:05:28;;;;;;;0.85;0.72;;;;;;;12.74;81.32;99377.11;1749906;80;21553;-41
2021/05/20 05:07:55;;;;;;;1.02;0.93;;;;;;;12.77;81.33;99382.69;1748573;80;21045;-44
2021/05/20 05:10:22;;;;;;;1.30;0.90;;;;;;;12.83;81.28;99373.31;1749077;80;21030;-43
2021/05/20 05:12:49;;;;;;;1.47;0.93;;;;;;;12.86;81.15;99377.91;1746546;80;21588;-42
2021/05/20 05:15:16;;;;;;;2.75;0.93;;;;;;;12.93;81.29;99377.74;1735894;80;20974;-41
2021/05/20 05:17:46;;;;;;;2.40;0.75;;;;;;;12.99;81.24;99377.20;1741064;80;21531;-42
2021/05/20 05:20:32;;;;;;;3.77;1.02;;;;;;;13.06;81.04;99382.05;1705646;82;21514;-42
2021/05/20 05:23:09;;;;;;;3.52;0.98;;;;;;;13.11;80.75;99382.50;1698273;83;21108;-43
2021/05/20 05:25:41;;;;;;;2.67;1.00;;;;;;;13.14;80.51;99381.73;1636059;86;21099;-49
2021/05/20 05:28:15;;;;;;;1.57;0.75;;;;;;;13.20;80.58;99390.59;1633606;86;21178;-47
2021/05/20 05:30:43;;;;;;;0.68;0.50;;;;;;;13.25;80.32;99386.14;1617817;87;21069;-47
2021/05/20 05:33:12;;;;;;;1.50;1.05;;;;;;;13.31;80.08;99389.67;1612920;87;21149;-51
2021/05/20 05:35:40;;;;;;;3.20;0.90;;;;;;;13.37;79.88;99385.11;1617165;87;21049;-50
2021/05/20 05:38:06;;;;;;;1.32;0.78;;;;;;;13.46;79.84;99390.67;1612954;87;21114;-51
2021/05/20 05:40:35;;;;;;;1.20;0.90;;;;;;;13.54;79.39;99400.21;1612653;87;21048;-53
2021/05/20 05:43:01;;;;;;;3.12;1.65;;;;;;;13.60;78.93;99397.82;1614920;87;21068;-47
2021/05/20 05:45:28;;;;;;;3.75;1.37;;;;;;;13.70;78.46;99398.36;1584247;89;21712;-47
2021/05/20 05:47:54;;;;;;;2.08;1.10;;;;;;;13.74;77.64;99393.10;1571950;89;21097;-47
2021/05/20 05:50:29;;;;;;;2.37;0.80;;;;;;;13.75;76.63;99390.27;1571404;89;21117;-50
2021/05/20 05:53:03;;;;;;;1.50;0.90;;;;;;;13.76;76.50;99387.96;1572928;89;21109;-49
2021/05/20 05:55:30;;;;;;;0.98;0.85;;;;;;;13.81;76.20;99388.40;1574302;89;21108;-46
2021/05/20 05:57:58;;;;;;;1.32;0.82;;;;;;;13.87;76.46;99386.16;1565139;89;21065;-45
2021/05/20 06:00:30;;;;;;;1.42;1.17;;;;;;;13.96;76.35;99387.52;1625527;86;21967;-51
2021/05/20 06:02:59;;;;;;;5.42;1.00;;;;;;;14.00;75.54;99395.62;1614984;86;21092;-43
2021/05/20 06:05:25;;;;;;;2.98;0.95;;;;;;;14.05;75.19;99404.59;1628320;86;21082;-46
2021/05/20 06:07:52;;;;;;;2.25;0.98;;;;;;;14.04;74.91;99403.75;1632682;86;21101;-46
2021/05/20 06:10:22;;;;;;;2.58;0.85;;;;;;;14.07;74.74;99405.31;1630391;86;21045;-49
2021/05/20 06:12:50;;;;;;;0.72;0.72;;;;;;;14.09;74.74;99410.05;1608106;86;21073;-43
2021/05/20 06:15:17;;;;;;;1.12;0.75;;;;;;;14.14;74.66;99409.64;1629929;86;21578;-44
2021/05/20 06:17:44;;;;;;;4.10;0.90;;;;;;;14.19;74.68;99411.41;1634660;86;21049;-44
2021/05/20 06:20:13;;;;;;;2.42;1.00;;;;;;;14.22;74.37;99418.67;1630574;86;21112;-44
2021/05/20 06:22:40;;;;;;;2.33;0.80;;;;;;;14.29;74.35;99424.34;1652167;84;21065;-46
2021/05/20 06:25:08;;;;;;;5.97;1.52;;;;;;;14.35;74.00;99422.92;1679589;83;21040;-56
2021/05/20 06:27:34;;;;;;;3.15;1.12;;;;;;;14.40;73.26;99429.56;1699362;82;21049;-45
2021/05/20 06:30:01;;;;;;;1.47;1.00;;;;;;;14.44;73.02;99435.02;1710050;82;21033;-53
2021/05/20 06:32:28;;;;;;;1.95;1.30;;;;;;;14.48;72.86;99430.20;1708741;82;21495;-45
2021/05/20 06:34:55;;;;;;;1.85;1.00;;;;;;;14.52;72.72;99432.97;1713227;82;21022;-44
2021/05/20 06:37:22;;;;;;;4.28;3.17;;;;;;;14.57;72.99;99430.75;1711517;82;21072;-47
2021/05/20 06:39:49;;;;;;;2.75;1.40;;;;;;;14.60;72.61;99438.50;1721453;79;21014;-46
2021/05/20 06:42:16;;;;;;;2.45;1.35;;;;;;;14.63;72.32;99452.13;1768764;79;21002;-45
2021/05/20 06:44:42;;;;;;;4.62;1.02;;;;;;;14.64;72.01;99453.81;1771790;79;21061;-45
2021/05/20 06:47:09;;;;;;;4.30;1.45;;;;;;;14.65;72.27;99464.42;1761925;80;21026;-46
2021/05/20 06:49:37;;;;;;;1.75;1.40;;;;;;;14.68;71.50;99466.81;1772357;80;21022;-43
2021/05/20 06:52:04;;;;;;;3.02;1.00;;;;;;;14.69;71.60;99477.05;1703112;83;21046;-43
2021/05/20 06:54:31;;;;;;;1.82;1.12;;;;;;;14.67;71.08;99475.02;1766938;80;21007;-44
2021/05/20 06:57:16;;;;;;;1.70;0.90;;;;;;;14.66;70.58;99469.28;1772774;80;21134;-47
2021/05/20 07:02:20;;;;;;;3.47;1.00;;;;;;;14.66;70.56;99471.97;1772956;79;20986;-43
2021/05/20 07:04:47;;;;;;;1.77;1.10;;;;;;;14.69;70.85;99469.87;1769647;80;21016;-45
2021/05/20 07:07:14;;;;;;;5.55;1.32;;;;;;;14.71;70.37;99462.50;1771776;80;21061;-46
2021/05/20 07:09:40;;;;;;;1.10;0.90;;;;;;;14.73;69.41;99465.55;1770533;79;21064;-48
2021/05/20 07:12:08;;;;;;;8.60;1.17;;;;;;;14.73;69.66;99452.98;1775235;79;21010;-44
2021/05/20 07:14:34;;;;;;;4.22;1.25;;;;;;;14.74;69.41;99460.06;1768179;79;21014;-48
2021/05/20 07:17:01;;;;;;;4.62;2.67;;;;;;;14.78;69.35;99453.41;1705565;83;21302;-49
2021/05/20 07:19:38;;;;;;;4.00;2.37;;;;;;;14.83;69.43;99469.09;1770782;79;21006;-47
2021/05/20 07:22:06;;;;;;;3.22;0.93;;;;;;;14.88;69.98;99464.14;1770362;80;21029;-47
2021/05/20 07:24:33;;;;;;;2.17;1.27;;;;;;;14.96;70.04;99463.43;1772932;79;21080;-50
2021/05/20 07:27:00;;;;;;;3.35;1.75;;;;;;;15.06;70.17;99457.55;1768499;79;21028;-47
2021/05/20 07:29:27;;;;;;;4.15;1.42;;;;;;;15.13;70.04;99456.84;1748323;80;21006;-49
2021/05/20 07:31:55;;;;;;;1.42;0.90;;;;;;;15.19;69.19;99454.07;1747064;80;21005;-48
2021/05/20 07:34:21;;;;;;;3.50;1.05;;;;;;;15.20;68.50;99459.81;1745436;80;21001;-49
2021/05/20 07:36:48;;;;;;;2.50;0.82;;;;;;;15.22;68.09;99459.17;1746106;80;21504;-48
2021/05/20 07:39:15;;;;;;;2.37;1.30;;;;;;;15.21;68.18;99462.83;1744506;80;21001;-46
2021/05/20 07:41:44;;;;;;;3.60;2.08;;;;;;;15.23;68.49;99458.17;1745983;80;21438;-46
2021/05/20 07:44:11;;;;;;;7.47;5.53;;;;;;;15.23;68.39;99464.89;1744988;80;21064;-48
2021/05/20 07:46:37;;;;;;;5.03;2.90;;;;;;;15.21;67.76;99457.97;1751521;80;20993;-48
2021/05/20 07:49:05;;;;;;;3.15;2.15;;;;;;;15.18;67.46;99463.62;1746040;80;21407;-47
2021/05/20 07:51:32;;;;;;;3.70;1.50;;;;;;;15.19;67.70;99468.84;1747719;80;21532;-44
2021/05/20 07:53:59;;;;;;;1.92;1.40;;;;;;;15.21;67.53;99479.45;1748168;80;21017;-44
2021/05/20 07:56:26;;;;;;;4.30;1.20;;;;;;;15.20;67.82;99474.58;1746401;80;21005;-45
2021/05/20 07:58:53;;;;;;;1.37;0.90;;;;;;;15.22;68.28;99482.00;1747606;80;21030;-44
2021/05/20 08:01:21;;;;;;;2.35;1.05;;;;;;;15.23;68.46;99491.73;1744327;80;21504;-45
2021/05/20 08:03:55;;;;;;;1.45;1.10;;;;;;;15.24;68.60;99495.27;1747224;80;21949;-46
2021/05/20 08:06:23;;;;;;;4.20;1.27;;;;;;;15.27;67.65;99501.69;1744134;80;21029;-49
2021/05/20 08:08:58;;;;;;;1.85;1.30;;;;;;;15.25;66.99;99492.45;1745265;80;21670;-48
2021/05/20 08:11:22;;;;;;;2.62;1.52;;;;;;;15.23;67.01;99499.80;1703661;82;21035;-47
2021/05/20 08:13:50;;;;;;;3.27;1.10;;;;;;;15.22;66.90;99506.64;1744967;80;21001;-49
2021/05/20 08:16:17;;;;;;;1.62;1.22;;;;;;;15.22;66.84;99512.88;1744398;80;20993;-44
2021/05/20 08:18:44;;;;;;;1.92;1.10;;;;;;;15.23;67.10;99519.09;1745532;80;20997;-47
2021/05/20 08:21:10;;;;;;;1.87;1.12;;;;;;;15.23;67.03;99517.25;1754372;80;21053;-45
2021/05/20 08:23:37;;;;;;;2.42;1.07;;;;;;;15.25;66.78;99521.98;1747463;80;21010;-43
2021/05/20 08:26:04;;;;;;;2.92;0.90;;;;;;;15.24;66.33;99516.75;1753728;80;21029;-45
2021/05/20 08:28:31;;;;;;;3.80;1.40;;;;;;;15.23;66.49;99511.88;1765763;79;21021;-46
2021/05/20 08:30:58;;;;;;;1.17;1.05;;;;;;;15.26;66.54;99521.48;1778514;79;21004;-45
2021/05/20 08:33:25;;;;;;;1.57;1.05;;;;;;;15.30;66.38;99518.88;1773170;79;21407;-45
2021/05/20 08:35:53;;;;;;;1.80;1.07;;;;;;;15.35;66.68;99523.33;1708579;82;21020;-48
2021/05/20 08:38:21;;;;;;;3.40;1.60;;;;;;;15.40;66.69;99525.59;1713825;83;21065;-47
2021/05/20 08:40:47;;;;;;;2.10;1.12;;;;;;;15.49;67.27;99526.05;1713059;82;21016;-45
2021/05/20 08:43:14;;;;;;;6.15;1.40;;;;;;;15.57;67.48;99520.80;1707994;83;21025;-42
2021/05/20 08:45:42;;;;;;;2.10;1.42;;;;;;;15.65;66.97;99518.25;1716809;82;21100;-43
2021/05/20 08:48:10;;;;;;;2.75;1.45;;;;;;;15.67;65.56;99528.84;1718301;82;21527;-43
2021/05/20 08:50:37;;;;;;;2.67;1.90;;;;;;;15.63;65.38;99522.92;1721494;82;21020;-43
2021/05/20 08:53:04;;;;;;;2.12;1.52;;;;;;;15.58;65.33;99531.41;1716500;82;21730;-45
2021/05/20 08:55:33;;;;;;;4.53;1.20;;;;;;;15.56;65.53;99533.38;1720973;82;21574;-43
2021/05/20 08:58:00;;;;;;;2.02;1.47;;;;;;;15.55;65.79;99526.33;1720401;82;21701;-44
2021/05/20 09:00:27;;;;;;;2.02;1.20;;;;;;;15.54;65.49;99526.46;1717205;82;21026;-42
2021/05/20 09:03:10;;;;;;;2.95;1.42;;;;;;;15.53;65.64;99536.37;1720505;82;21056;-45
2021/05/20 09:05:38;;;;;;;2.27;1.20;;;;;;;15.54;66.27;99534.52;1718183;82;21011;-44
2021/05/20 09:08:10;;;;;;;2.02;1.10;;;;;;;15.56;66.62;99540.60;1716575;81;21081;-42
2021/05/20 09:10:34;;;;;;;1.40;1.00;;;;;;;15.57;66.36;99538.26;1723861;81;21062;-48
2021/05/20 09:13:04;;;;;;;2.95;1.12;;;;;;;15.58;66.17;99540.81;1727337;82;21061;-45
2021/05/20 09:15:47;;;;;;;1.52;1.00;;;;;;;15.61;66.36;99544.20;1716878;82;21045;-42
2021/05/20 09:18:24;;;;;;;2.12;1.32;;;;;;;15.67;65.67;99548.98;1723352;82;21381;-46
2021/05/20 09:20:56;;;;;;;7.22;1.22;;;;;;;15.75;65.43;99554.04;1720139;81;21046;-44
2021/05/20 09:23:25;;;;;;;2.70;1.30;;;;;;;15.87;65.26;99549.83;1720133;81;21473;-44
2021/05/20 09:25:53;;;;;;;5.28;0.93;;;;;;;16.01;64.83;99546.67;1719321;82;21528;-44
2021/05/20 09:28:46;;;;;;;4.65;2.17;;;;;;;16.12;64.91;99552.36;1712241;82;21059;-47
2021/05/20 09:31:15;;;;;;;5.92;2.10;;;;;;;16.21;64.74;99555.02;1628738;86;21046;-42
2021/05/20 09:33:54;;;;;;;1.47;0.95;;;;;;;16.21;63.36;99556.36;1629320;86;21136;-43
2021/05/20 09:36:23;;;;;;;;;;;;;;;16.18;62.89;99566.07;1636261;87;21036;-46
2021/05/20 09:38:52;;;;;;;2.77;1.40;;;;;;;16.13;62.42;99562.98;1629671;86;20158;-42
2021/05/20 09:41:19;;;;;;;1.98;1.35;;;;;;;16.10;62.68;99564.63;1608406;87;21942;-45
2021/05/20 09:43:47;;;;;;;2.17;0.98;;;;;;;16.08;62.35;99568.45;1626606;86;21487;-43
2021/05/20 09:46:15;;;;;;;3.50;1.10;;;;;;;16.07;62.47;99565.40;1621902;86;21060;-47
2021/05/20 09:48:47;;;;;;;1.77;1.10;;;;;;;16.05;61.91;99572.75;1640295;85;21069;-45
2021/05/20 09:51:26;;;;;;;7.35;1.62;;;;;;;16.04;62.18;99560.32;1623108;86;21300;-45
2021/05/20 09:54:15;;;;;;;2.58;0.90;;;;;;;16.07;61.60;99563.55;1618337;86;21012;-46
2021/05/20 09:56:44;;;;;;;4.70;1.32;;;;;;;16.14;61.97;99559.78;1630469;86;21005;-44
2021/05/20 09:59:15;;;;;;;3.02;0.90;;;;;;;16.24;62.54;99560.59;1626382;86;21154;-44
2021/05/20 10:01:43;;;;;;;3.60;1.00;;;;;;;16.34;62.84;99561.39;1629814;86;21033;-44
2021/05/20 10:04:12;;;;;;;1.98;1.20;;;;;;;16.48;62.81;99566.80;1628566;86;21105;-44
2021/05/20 10:06:42;;;;;;;2.10;1.35;;;;;;;16.60;61.99;99569.60;1630128;82;20986;-44
2021/05/20 10:09:11;;;;;;;2.30;1.20;;;;;;;16.65;61.53;99570.00;1715595;82;21573;-44
2021/05/20 10:11:40;;;;;;;2.17;1.07;;;;;;;16.71;61.53;99569.92;1719224;82;21006;-44
2021/05/20 10:14:07;;;;;;;2.05;1.02;;;;;;;16.82;62.19;99570.23;1708584;82;20990;-44
2021/05/20 10:16:38;;;;;;;1.60;1.05;;;;;;;16.93;61.29;99573.20;1686113;83;21013;-44
2021/05/20 10:19:05;;;;;;;3.37;1.07;;;;;;;17.04;59.30;99577.03;1705483;82;21528;-43
2021/05/20 10:21:32;;;;;;;3.47;1.10;;;;;;;17.07;58.71;99568.64;1695584;82;21022;-44
2021/05/20 10:24:00;;;;;;;1.77;0.85;;;;;;;16.99;57.22;99570.75;1725772;81;21021;-44
2021/05/20 10:26:27;;;;;;;3.87;1.10;;;;;;;16.93;57.52;99574.54;1724030;81;21056;-44
2021/05/20 10:28:53;;;;;;;1.00;0.78;;;;;;;16.86;58.58;99585.94;1698026;82;21021;-45
2021/05/20 10:31:20;;;;;;;2.70;1.00;;;;;;;16.86;59.43;99588.63;1696971;83;20990;-44
2021/05/20 10:33:47;;;;;;;3.55;1.00;;;;;;;16.87;59.21;99588.95;1696377;83;21038;-42
2021/05/20 10:36:26;;;;;;;2.08;0.90;;;;;;;16.90;59.23;99597.73;1764582;80;21017;-44
2021/05/20 10:38:52;;;;;;;2.12;1.32;;;;;;;16.95;59.65;99596.78;1764319;80;21044;-44
2021/05/20 10:41:28;;;;;;;5.28;3.20;;;;;;;17.03;58.89;99603.13;1743267;80;21012;-44
2021/05/20 10:44:08;;;;;;;2.15;1.42;;;;;;;17.12;57.99;99601.34;1763864;79;21096;-44
2021/05/20 10:47:03;;;;;;;9.65;1.77;;;;;;;17.15;56.90;99597.50;1756774;80;21012;-44
2021/05/20 10:49:54;;;;;;;1.95;1.25;;;;;;;17.16;57.01;99605.91;1649902;84;21034;-46
2021/05/20 10:52:41;;;;;;;4.03;1.27;;;;;;;17.15;56.74;99606.92;1642261;86;21009;-44
2021/05/20 10:55:10;;;;;;;2.00;0.90;;;;;;;17.12;56.59;99606.73;1647895;85;21055;-45
2021/05/20 10:57:56;;;;;;;2.33;0.98;;;;;;;17.09;56.46;99607.05;1635519;86;21030;-43
2021/05/20 11:00:38;;;;;;;2.17;0.85;;;;;;;17.05;56.93;99611.87;1647046;85;21077;-45
2021/05/20 11:03:06;;;;;;;1.67;1.30;;;;;;;17.07;57.45;99616.61;1645360;86;21066;-46
2021/05/20 11:05:48;;;;;;;1.80;1.10;;;;;;;17.15;58.31;99622.58;1645944;85;21396;-47
2021/05/20 11:08:38;;;;;;;5.33;1.55;;;;;;;17.28;57.88;99620.85;1653825;85;21018;-47
2021/05/20 11:11:09;;;;;;;1.60;0.90;;;;;;;17.40;56.50;99614.74;1648189;85;21061;-46
2021/05/20 11:13:39;;;;;;;4.00;0.98;;;;;;;17.46;56.51;99617.68;1624406;85;21598;-46
2021/05/20 11:16:15;;;;;;;2.12;0.90;;;;;;;17.49;55.28;99606.58;1650470;85;21769;-46
2021/05/20 11:18:45;;;;;;;2.83;1.07;;;;;;;17.46;54.11;99604.20;1653314;85;21078;-47
2021/05/20 11:21:13;;;;;;;2.95;1.27;;;;;;;17.38;54.95;99614.05;1648940;85;21049;-46
2021/05/20 11:23:40;;;;;;;5.55;4.22;;;;;;;17.31;55.32;99616.50;1706747;80;20969;-50
2021/05/20 11:26:17;;;;;;;4.10;1.92;;;;;;;17.33;56.13;99617.70;1745141;80;21384;-47
2021/05/20 11:29:00;;;;;;;2.92;1.15;;;;;;;17.35;55.31;99619.24;1774616;79;21009;-47
2021/05/20 11:31:27;;;;;;;0.80;0.80;;;;;;;17.37;55.36;99614.55;1774274;79;21002;-47
2021/05/20 11:37:47;;;;;;;2.85;1.10;;;;;;;17.51;56.02;99607.76;1615844;86;21102;-41
2021/05/20 11:40:32;;;;;;;2.62;1.17;;;;;;;17.68;54.95;99611.44;1618002;87;21045;-48
2021/05/20 11:43:01;;;;;;;2.27;1.15;;;;;;;17.78;55.07;99606.80;1616015;87;21618;-43
2021/05/20 11:45:30;;;;;;;3.10;0.88;;;;;;;17.89;53.17;99605.73;1620030;87;21149;-46
2021/05/20 11:47:59;;;;;;;1.95;1.10;;;;;;;17.97;52.38;99608.50;1621836;86;21078;-45